Date,TemperatureHighF,TemperatureAvgF,TemperatureLowF,DewpointHighF,DewpointAvgF,DewpointLowF,HumidityHigh,HumidityAvg,HumidityLow,PressureMaxIn,PressureMinIn,WindSpeedMaxMPH,WindSpeedAvgMPH,GustSpeedMaxMPH,PrecipitationSumIn
2013-8-1,86.8,83.1,80.5,76.7,75.1,73.7,82,77,68,25.33,25.18,12,2,16,0.00
2013-8-2,87.2,80.4,73.8,77.5,74.4,70.0,94,83,70,25.27,25.13,11,0,24,0.51
2013-8-3,85.7,77.4,71.1,78.5,74.6,68.6,95,91,78,25.28,25.17,5,0,29,0.96
2013-8-4,89.7,80.9,75.2,78.9,75.6,72.8,95,85,68,25.24,25.16,8,0,20,0.02
2013-8-5,87.8,80.5,76.8,78.9,75.9,72.7,93,86,72,25.23,25.12,7,1,12,0.41
2013-8-6,87.9,81.6,76.4,79.1,75.7,72.6,95,83,72,25.21,25.05,6,0,11,0.00
2013-8-7,87.0,83.0,78.1,78.1,76.1,73.3,89,80,72,25.14,25.07,6,1,17,0.00
2013-8-8,88.3,84.6,82.1,78.4,76.2,73.4,82,76,66,25.19,25.07,11,1,19,0.00
2013-8-9,86.6,82.3,78.3,77.4,75.0,71.4,89,79,69,25.17,25.05,9,2,19,0.16
2013-8-10,88.6,84.5,81.2,78.1,76.6,74.8,84,78,70,25.19,25.05,10,2,17,0.00
2013-8-11,88.1,84.7,82.0,78.7,77.0,75.7,83,78,73,25.15,25.08,7,1,14,0.00
2013-8-12,87.8,83.5,81.1,77.9,75.6,73.6,85,78,69,25.16,25.05,7,1,16,0.11
2013-8-13,88.3,84.5,81.2,77.4,76.4,75.2,84,77,69,25.09,25.00,8,1,15,0.00
2013-8-14,88.7,84.3,81.2,77.6,75.8,74.6,84,76,69,25.13,24.98,10,1,16,0.00
2013-8-15,84.7,80.3,74.9,77.0,75.7,72.4,95,86,77,25.15,25.05,7,0,21,1.59
2013-8-16,88.3,83.7,79.0,79.5,77.8,75.9,92,83,75,25.14,25.06,10,1,14,0.00
2013-8-17,88.5,85.0,82.3,80.0,78.1,76.2,85,80,73,25.20,25.03,9,1,17,0.00
2013-8-18,88.2,84.3,81.1,79.3,77.3,75.0,85,80,74,25.17,25.06,8,1,21,0.08
2013-8-19,88.8,84.7,82.3,78.9,77.4,76.0,84,79,72,25.14,25.05,9,1,19,0.00
2013-8-20,88.0,84.4,80.8,78.0,76.6,74.1,84,78,68,25.10,24.94,13,1,16,0.00
2013-8-21,87.6,83.7,80.4,79.9,77.6,75.1,89,82,76,25.05,24.90,12,2,20,0.11
2013-8-22,88.1,84.1,77.7,79.8,77.3,73.7,92,81,74,25.03,24.95,11,1,16,0.13
2013-8-23,88.0,83.7,81.4,78.8,76.6,74.8,85,80,69,25.02,24.83,12,1,15,0.01
2013-8-24,88.3,83.9,77.1,78.3,76.1,72.0,91,78,70,25.07,24.92,8,1,15,0.09
2013-8-25,84.3,80.4,74.5,77.1,75.4,72.0,94,85,74,25.12,24.96,7,0,12,0.13
2013-8-26,86.6,80.7,75.2,77.1,74.5,71.4,91,82,72,25.09,24.95,7,1,17,0.07
2013-8-27,82.8,77.8,73.8,76.0,73.0,69.6,92,86,69,24.98,24.88,0,0,12,0.25
2013-8-28,86.3,81.2,76.3,76.4,74.6,72.5,92,81,68,24.99,24.88,6,1,13,0.01
2013-8-29,87.1,81.2,74.1,78.5,75.4,71.9,93,83,73,24.95,24.88,7,0,13,0.01
2013-8-30,88.5,82.8,76.1,77.5,75.1,72.4,93,78,60,24.96,24.81,7,1,16,0.00
2013-8-31,87.8,80.5,74.6,77.6,74.8,71.6,93,84,71,24.87,24.80,5,0,13,0.04